Time;durP1;ratioP1;P1;durP2;ratioP2;P2;SDS_P1;SDS_P2;PMS_P1;PMS_P2;Temp;Humidity;BMP_temperature;BMP_pressure;BME280_temperature;BME280_humidity;BME280_pressure;Samples;Min_cycle;Max_cycle;Signal;HPM_P1;HPM_P2
2023/01/02 00:01:49;;;;;;;9.48;2.30;;;;;;;;;;6254545;23;20871;-88
2023/01/02 00:05:08;;;;;;;6.30;2.60;;;;;;;;;;6255027;23;20020;-88
2023/01/02 00:07:37;;;;;;;7.30;2.33;;;;;;;;;;6255375;23;20019;-88
2023/01/02 00:10:11;;;;;;;6.90;2.50;;;;;;;;;;6230719;23;20083;-88
2023/01/02 00:12:43;;;;;;;5.60;2.22;;;;;;;;;;6229240;23;20020;-88
2023/01/02 00:15:10;;;;;;;12.35;3.45;;;;;;;;;;6219842;23;20031;-88
2023/01/02 00:17:38;;;;;;;9.32;3.13;;;;;;;;;;6255712;23;20024;-88
2023/01/02 00:20:07;;;;;;;6.00;2.42;;;;;;;;;;6219314;23;20045;-88
2023/01/02 00:22:40;;;;;;;6.63;2.75;;;;;;;;;;6231777;23;20090;-88
2023/01/02 00:25:09;;;;;;;6.40;2.60;;;;;;;;;;6231058;23;20027;-88
2023/01/02 00:27:37;;;;;;;6.10;2.40;;;;;;;;;;6195718;23;20762;-88
2023/01/02 00:30:05;;;;;;;8.48;2.88;;;;;;;;;;6257563;23;20028;-88
2023/01/02 00:32:33;;;;;;;7.43;2.38;;;;;;;;;;6257350;23;20032;-88
2023/01/02 00:35:01;;;;;;;6.53;2.50;;;;;;;;;;6257347;23;20036;-88
2023/01/02 00:37:28;;;;;;;7.63;2.22;;;;;;;;;;6231337;23;20022;-88
2023/01/02 00:39:57;;;;;;;7.15;2.50;;;;;;;;;;6220287;23;20074;-88
2023/01/02 00:42:24;;;;;;;9.80;2.70;;;;;;;;;;6219686;23;20024;-89
2023/01/02 00:44:56;;;;;;;5.32;2.40;;;;;;;;;;6222378;23;20395;-88
2023/01/02 00:47:24;;;;;;;12.48;2.78;;;;;;;;;;6257995;23;20103;-88
2023/01/02 00:49:57;;;;;;;8.10;2.50;;;;;;;;;;6259061;23;20054;-88
2023/01/02 00:52:25;;;;;;;6.53;2.60;;;;;;;;;;6259697;23;20519;-88
2023/01/02 00:54:52;;;;;;;6.72;2.40;;;;;;;;;;6258850;23;20039;-88
2023/01/02 00:57:21;;;;;;;9.40;2.53;;;;;;;;;;6231719;23;20074;-89
2023/01/02 00:59:53;;;;;;;5.25;2.45;;;;;;;;;;6231664;23;20696;-89
2023/01/02 01:05:39;;;;;;;14.30;3.35;;;;;;;;;;6234528;23;20010;-88
2023/01/02 01:08:07;;;;;;;7.45;2.17;;;;;;;;;;6224763;23;20042;-88
2023/01/02 01:10:36;;;;;;;7.20;2.65;;;;;;;;;;6235760;23;20083;-89
2023/01/02 01:13:08;;;;;;;5.82;3.00;;;;;;;;;;6234783;23;20027;-89
2023/01/02 01:15:41;;;;;;;10.18;3.05;;;;;;;;;;6235110;23;20019;-88
2023/01/02 01:18:08;;;;;;;6.28;2.45;;;;;;;;;;6259926;23;20016;-88
2023/01/02 01:20:38;;;;;;;8.63;2.33;;;;;;;;;;6233205;23;20096;-88
2023/01/02 01:23:04;;;;;;;5.97;2.20;;;;;;;;;;6232713;23;20089;-88
2023/01/02 01:25:56;;;;;;;7.07;2.60;;;;;;;;;;6259780;23;20086;-89
2023/01/02 01:28:25;;;;;;;5.65;2.88;;;;;;;;;;6232949;23;20020;-88
2023/01/02 01:30:52;;;;;;;7.10;2.92;;;;;;;;;;6231502;23;20054;-88
2023/01/02 01:33:24;;;;;;;6.82;3.25;;;;;;;;;;6208351;23;20066;-88
2023/01/02 01:35:52;;;;;;;8.25;3.00;;;;;;;;;;6231967;23;20024;-89
2023/01/02 01:38:26;;;;;;;7.68;2.50;;;;;;;;;;6195633;23;20493;-88
2023/01/02 01:40:53;;;;;;;9.07;3.00;;;;;;;;;;6258942;23;20046;-89
2023/01/02 01:43:54;;;;;;;8.93;2.63;;;;;;;;;;6262076;23;20016;-89
2023/01/02 01:46:37;;;;;;;7.78;2.83;;;;;;;;;;6139935;23;20025;-89
2023/01/02 01:49:10;;;;;;;7.18;3.13;;;;;;;;;;6091037;23;20033;-89
2023/01/02 01:52:05;;;;;;;10.80;3.00;;;;;;;;;;6128113;23;20074;-88
2023/01/02 01:54:41;;;;;;;7.50;3.30;;;;;;;;;;6000683;23;20024;-89
2023/01/02 01:58:04;;;;;;;6.85;3.03;;;;;;;;;;5990624;23;20095;-88
2023/01/02 02:00:33;;;;;;;6.25;2.72;;;;;;;;;;6013261;23;20035;-89
2023/01/02 02:03:07;;;;;;;8.95;2.72;;;;;;;;;;6014059;23;20027;-88
2023/01/02 02:05:35;;;;;;;7.38;2.83;;;;;;;;;;5990235;23;20032;-88
2023/01/02 02:08:16;;;;;;;7.93;2.55;;;;;;;;;;5990007;23;20389;-88
2023/01/02 02:10:46;;;;;;;8.75;3.05;;;;;;;;;;5990609;23;20465;-88
2023/01/02 02:13:13;;;;;;;8.93;3.00;;;;;;;;;;6023377;23;20055;-88
2023/01/02 02:16:02;;;;;;;9.93;2.97;;;;;;;;;;6023894;23;20068;-88
2023/01/02 02:18:49;;;;;;;9.35;3.22;;;;;;;;;;6014482;23;20024;-89
2023/01/02 02:21:47;;;;;;;11.02;3.33;;;;;;;;;;6016106;23;20036;-89
2023/01/02 02:24:57;;;;;;;7.35;3.00;;;;;;;;;;6089766;23;20021;-88
2023/01/02 02:27:56;;;;;;;12.30;4.63;;;;;;;;;;6085381;23;20018;-88
2023/01/02 02:30:29;;;;;;;7.00;3.45;;;;;;;;;;6085267;23;20018;-88
2023/01/02 02:33:18;;;;;;;8.98;3.42;;;;;;;;;;6199472;23;20054;-88
2023/01/02 02:36:11;;;;;;;7.78;3.53;;;;;;;;;;6261440;23;20020;-88
2023/01/02 02:39:03;;;;;;;5.63;3.15;;;;;;;;;;6234993;23;20016;-89
2023/01/02 02:41:43;;;;;;;9.35;4.10;;;;;;;;;;6234815;23;20046;-88
2023/01/02 02:44:17;;;;;;;7.05;3.10;;;;;;;;;;6235709;23;20011;-88
2023/01/02 02:47:15;;;;;;;10.18;3.40;;;;;;;;;;6261226;23;20012;-89
2023/01/02 02:50:05;;;;;;;7.90;3.25;;;;;;;;;;6261253;23;20027;-89
2023/01/02 02:52:40;;;;;;;9.07;3.08;;;;;;;;;;6260814;23;20086;-89
2023/01/02 02:55:23;;;;;;;13.98;3.58;;;;;;;;;;6200402;23;20016;-89
2023/01/02 02:57:52;;;;;;;10.93;3.78;;;;;;;;;;6262697;23;20074;-88
2023/01/02 03:00:22;;;;;;;8.88;3.25;;;;;;;;;;6261906;23;20030;-88
2023/01/02 03:02:51;;;;;;;12.73;3.13;;;;;;;;;;6261005;23;20549;-89
2023/01/02 03:05:42;;;;;;;8.85;3.20;;;;;;;;;;6235130;23;20016;-89
2023/01/02 03:08:25;;;;;;;9.48;3.45;;;;;;;;;;6233927;23;20353;-88
2023/01/02 03:11:02;;;;;;;8.80;3.13;;;;;;;;;;6210897;23;20024;-89
2023/01/02 03:19:47;;;;;;;8.20;3.40;;;;;;;;;;6250811;23;20016;-88
2023/01/02 03:22:25;;;;;;;8.57;3.65;;;;;;;;;;6260563;23;20016;-88
2023/01/02 03:24:55;;;;;;;8.07;3.28;;;;;;;;;;6223804;23;20105;-88
2023/01/02 03:27:28;;;;;;;6.65;3.15;;;;;;;;;;6234181;23;20012;-88
2023/01/02 03:30:01;;;;;;;10.73;3.40;;;;;;;;;;6260774;23;20016;-88
2023/01/02 03:32:34;;;;;;;11.43;3.15;;;;;;;;;;6261593;23;20016;-89
2023/01/02 03:35:10;;;;;;;15.35;3.40;;;;;;;;;;6211137;23;20459;-89
2023/01/02 03:38:07;;;;;;;9.38;3.08;;;;;;;;;;6240144;23;20016;-88
2023/01/02 03:40:41;;;;;;;10.98;3.28;;;;;;;;;;6209022;23;20020;-88
2023/01/02 03:43:29;;;;;;;9.18;3.85;;;;;;;;;;6260889;23;20018;-89
2023/01/02 03:46:08;;;;;;;15.50;4.32;;;;;;;;;;6234633;23;20091;-88
2023/01/02 03:48:54;;;;;;;7.32;2.85;;;;;;;;;;6260657;23;20043;-88
2023/01/02 03:51:27;;;;;;;9.05;3.17;;;;;;;;;;6260826;23;20070;-88
2023/01/02 03:53:55;;;;;;;7.57;3.05;;;;;;;;;;6234516;23;20016;-89
2023/01/02 03:56:47;;;;;;;10.23;3.28;;;;;;;;;;6234559;23;20012;-88
2023/01/02 03:59:36;;;;;;;14.07;5.40;;;;;;;;;;6260085;23;20020;-88
2023/01/02 04:02:20;;;;;;;9.02;3.08;;;;;;;;;;6234211;23;20610;-89
2023/01/02 04:04:55;;;;;;;10.32;3.20;;;;;;;;;;6261394;23;20012;-88
2023/01/02 04:07:48;;;;;;;9.15;3.10;;;;;;;;;;6260096;23;20044;-89
2023/01/02 04:10:21;;;;;;;6.57;2.95;;;;;;;;;;6261148;23;20039;-89
2023/01/02 04:12:52;;;;;;;6.97;2.85;;;;;;;;;;6260328;23;20409;-88
2023/01/02 04:15:47;;;;;;;8.40;3.10;;;;;;;;;;6261869;23;20071;-88
2023/01/02 04:18:43;;;;;;;6.20;2.92;;;;;;;;;;6263082;23;20018;-88
2023/01/02 04:21:21;;;;;;;10.38;4.03;;;;;;;;;;6262732;23;20020;-88
2023/01/02 04:23:55;;;;;;;11.52;3.38;;;;;;;;;;6236731;23;20024;-89
2023/01/02 04:26:34;;;;;;;7.93;3.40;;;;;;;;;;6263749;23;20120;-88
2023/01/02 04:29:25;;;;;;;10.15;3.05;;;;;;;;;;6241836;23;20012;-88
2023/01/02 04:32:10;;;;;;;6.82;3.10;;;;;;;;;;6236575;23;20016;-88
2023/01/02 04:34:39;;;;;;;9.25;3.15;;;;;;;;;;6226151;23;20188;-89
2023/01/02 04:37:07;;;;;;;9.48;3.28;;;;;;;;;;6225715;23;20024;-89
2023/01/02 04:39:36;;;;;;;8.75;3.22;;;;;;;;;;6262472;23;20024;-88
2023/01/02 04:42:05;;;;;;;14.45;3.90;;;;;;;;;;6211952;23;20068;-88
2023/01/02 04:44:32;;;;;;;7.88;3.13;;;;;;;;;;6262176;23;20079;-88
2023/01/02 04:47:04;;;;;;;10.77;3.30;;;;;;;;;;6263099;23;20444;-88
2023/01/02 04:49:32;;;;;;;8.40;2.97;;;;;;;;;;6230851;23;20042;-88
2023/01/02 04:52:00;;;;;;;9.93;3.45;;;;;;;;;;6205848;23;20140;-88
2023/01/02 04:54:53;;;;;;;9.20;3.30;;;;;;;;;;6232510;23;20088;-88
2023/01/02 04:57:44;;;;;;;7.22;3.15;;;;;;;;;;6232269;23;20004;-88
2023/01/02 05:00:13;;;;;;;10.02;3.90;;;;;;;;;;6205443;23;20096;-88
2023/01/02 05:02:41;;;;;;;8.52;3.63;;;;;;;;;;6230169;23;20075;-89
2023/01/02 05:05:09;;;;;;;8.65;3.50;;;;;;;;;;6231985;23;20008;-89
2023/01/02 05:07:38;;;;;;;9.30;3.20;;;;;;;;;;6196229;23;20016;-88
2023/01/02 05:10:11;;;;;;;14.30;3.03;;;;;;;;;;6230787;23;20348;-89
2023/01/02 05:12:39;;;;;;;12.55;3.45;;;;;;;;;;6231194;23;20012;-89
2023/01/02 05:15:08;;;;;;;13.13;3.20;;;;;;;;;;6220127;23;20020;-88
2023/01/02 05:17:38;;;;;;;9.75;3.35;;;;;;;;;;6230918;23;20027;-89
2023/01/02 05:20:11;;;;;;;11.23;3.33;;;;;;;;;;6220453;23;20076;-89
2023/01/02 05:25:50;;;;;;;8.82;3.58;;;;;;;;;;6231096;23;20016;-89
2023/01/02 05:28:19;;;;;;;9.10;3.22;;;;;;;;;;6229596;23;20520;-88
2023/01/02 05:30:48;;;;;;;12.57;3.55;;;;;;;;;;6230993;23;20104;-89
2023/01/02 05:33:17;;;;;;;11.07;3.03;;;;;;;;;;6230116;23;20020;-89
2023/01/02 05:35:44;;;;;;;11.63;3.60;;;;;;;;;;6232056;23;20019;-89
2023/01/02 05:38:38;;;;;;;13.23;3.45;;;;;;;;;;6219901;23;20020;-89
2023/01/02 05:41:07;;;;;;;10.10;3.08;;;;;;;;;;6230024;23;20445;-89
2023/01/02 05:43:41;;;;;;;8.32;3.10;;;;;;;;;;6228612;23;20024;-89
2023/01/02 05:46:14;;;;;;;9.60;3.42;;;;;;;;;;6230295;23;20036;-88
2023/01/02 05:48:43;;;;;;;12.10;3.33;;;;;;;;;;6222415;23;20016;-89
2023/01/02 05:51:17;;;;;;;12.18;3.58;;;;;;;;;;6228400;23;20457;-89
2023/01/02 05:53:45;;;;;;;11.07;4.20;;;;;;;;;;6228181;23;20022;-89
2023/01/02 05:56:15;;;;;;;10.70;3.15;;;;;;;;;;6203499;23;20064;-89
2023/01/02 05:58:45;;;;;;;10.85;3.50;;;;;;;;;;6227391;23;20091;-89
2023/01/02 06:01:19;;;;;;;9.60;3.30;;;;;;;;;;6214209;23;20111;-88
2023/01/02 06:03:55;;;;;;;9.70;3.25;;;;;;;;;;6225966;23;20099;-88
2023/01/02 06:06:33;;;;;;;13.10;3.40;;;;;;;;;;6188464;23;20028;-88
2023/01/02 06:09:01;;;;;;;7.90;3.47;;;;;;;;;;6211604;23;20024;-89
2023/01/02 06:11:35;;;;;;;8.20;3.25;;;;;;;;;;6212534;23;20100;-87
2023/01/02 06:14:03;;;;;;;11.18;3.78;;;;;;;;;;6225651;23;20020;-89
2023/01/02 06:16:35;;;;;;;11.00;3.65;;;;;;;;;;6226510;23;20318;-88
2023/01/02 06:19:03;;;;;;;11.60;4.00;;;;;;;;;;6189067;23;20024;-87
2023/01/02 06:21:31;;;;;;;10.07;3.72;;;;;;;;;;6223152;23;20465;-88
2023/01/02 06:24:05;;;;;;;8.43;3.13;;;;;;;;;;6219399;23;20024;-88
2023/01/02 06:26:57;;;;;;;9.98;3.40;;;;;;;;;;6221890;23;20024;-88
2023/01/02 06:29:28;;;;;;;8.55;3.35;;;;;;;;;;6221722;23;20054;-88
2023/01/02 06:31:56;;;;;;;10.95;3.90;;;;;;;;;;6221246;23;20024;-88
2023/01/02 06:34:34;;;;;;;7.75;3.28;;;;;;;;;;6220505;23;20055;-88
2023/01/02 06:37:06;;;;;;;7.63;3.55;;;;;;;;;;6222409;23;20024;-88
2023/01/02 06:40:00;;;;;;;13.55;3.70;;;;;;;;;;6210695;23;20071;-88
2023/01/02 06:42:28;;;;;;;13.13;3.40;;;;;;;;;;6220940;23;20020;-89
2023/01/02 06:44:57;;;;;;;11.35;3.70;;;;;;;;;;6210598;23;20330;-88
2023/01/02 06:47:56;;;;;;;9.45;4.07;;;;;;;;;;6221086;23;20070;-88
2023/01/02 06:50:28;;;;;;;8.30;3.45;;;;;;;;;;6221320;23;20021;-87
2023/01/02 06:53:01;;;;;;;7.78;3.63;;;;;;;;;;6221810;23;20020;-88
2023/01/02 06:55:28;;;;;;;9.55;3.65;;;;;;;;;;6220416;23;20474;-88
2023/01/02 06:58:00;;;;;;;14.85;4.10;;;;;;;;;;6221879;23;20013;-87
2023/01/02 07:00:40;;;;;;;11.65;3.85;;;;;;;;;;6221228;23;20020;-87
2023/01/02 07:03:08;;;;;;;16.25;4.03;;;;;;;;;;6220634;23;20090;-88
2023/01/02 07:05:46;;;;;;;11.93;3.90;;;;;;;;;;6163237;23;20409;-88
2023/01/02 07:08:44;;;;;;;12.98;3.88;;;;;;;;;;6220570;23;20020;-88
2023/01/02 07:11:20;;;;;;;9.32;3.42;;;;;;;;;;6222135;23;20020;-88
2023/01/02 07:13:49;;;;;;;9.05;3.70;;;;;;;;;;6221121;23;20031;-88
2023/01/02 07:16:18;;;;;;;14.20;4.00;;;;;;;;;;6219593;23;20021;-88
2023/01/02 07:18:52;;;;;;;10.77;4.43;;;;;;;;;;6219952;23;20091;-88
2023/01/02 07:21:21;;;;;;;11.35;3.92;;;;;;;;;;6220152;23;20094;-88
2023/01/02 07:23:49;;;;;;;8.10;3.35;;;;;;;;;;6221211;23;20020;-88
2023/01/02 07:26:17;;;;;;;11.32;4.25;;;;;;;;;;6184856;23;20025;-87
2023/01/02 07:28:45;;;;;;;9.27;3.40;;;;;;;;;;6219609;23;20330;-88
2023/01/02 07:31:19;;;;;;;13.45;3.83;;;;;;;;;;6217833;23;20674;-88
2023/01/02 07:33:47;;;;;;;10.68;4.45;;;;;;;;;;6216639;23;20020;-88
2023/01/02 07:36:17;;;;;;;11.90;4.20;;;;;;;;;;6220704;23;20012;-88
2023/01/02 07:38:49;;;;;;;11.52;3.92;;;;;;;;;;6219667;23;20063;-88
2023/01/02 07:41:41;;;;;;;12.45;4.00;;;;;;;;;;6216651;23;20400;-88
2023/01/02 07:44:15;;;;;;;9.52;3.97;;;;;;;;;;6217231;23;20465;-88
2023/01/02 07:46:42;;;;;;;9.02;3.65;;;;;;;;;;6220422;23;20023;-88
2023/01/02 07:49:11;;;;;;;11.23;4.07;;;;;;;;;;6234437;23;20022;-87
2023/01/02 07:51:39;;;;;;;6.93;3.92;;;;;;;;;;6252200;23;20047;-88
2023/01/02 07:54:07;;;;;;;10.02;4.10;;;;;;;;;;6251921;23;20024;-88
2023/01/02 07:56:35;;;;;;;11.50;4.10;;;;;;;;;;6251927;23;20012;-88
2023/01/02 07:59:03;;;;;;;11.30;4.63;;;;;;;;;;6215692;23;20016;-88
2023/01/02 08:01:34;;;;;;;12.43;5.25;;;;;;;;;;6251551;23;20020;-89
2023/01/02 08:04:07;;;;;;;9.73;4.82;;;;;;;;;;6252212;23;20020;-88
2023/01/02 08:06:38;;;;;;;15.63;4.43;;;;;;;;;;6251152;23;20096;-88
2023/01/02 08:09:29;;;;;;;14.60;4.53;;;;;;;;;;6168295;23;20617;-89
2023/01/02 08:12:20;;;;;;;12.90;4.43;;;;;;;;;;6225924;23;20011;-88
2023/01/02 08:14:48;;;;;;;14.93;5.20;;;;;;;;;;6225196;23;20612;-88
2023/01/02 08:17:17;;;;;;;13.25;4.93;;;;;;;;;;6214019;23;20091;-88
2023/01/02 08:19:44;;;;;;;11.32;4.93;;;;;;;;;;6243268;23;20024;-88
2023/01/02 08:22:16;;;;;;;11.02;4.78;;;;;;;;;;6251581;23;20095;-88
2023/01/02 08:24:44;;;;;;;17.65;4.35;;;;;;;;;;6214804;23;20047;-88
2023/01/02 08:27:13;;;;;;;11.18;4.63;;;;;;;;;;6225136;23;20012;-87
2023/01/02 08:29:41;;;;;;;8.30;4.40;;;;;;;;;;6224183;23;20475;-87
2023/01/02 08:32:08;;;;;;;10.70;4.05;;;;;;;;;;6251222;23;20074;-88
2023/01/02 08:34:36;;;;;;;13.27;4.40;;;;;;;;;;6251551;23;20020;-88
2023/01/02 08:37:04;;;;;;;9.43;4.30;;;;;;;;;;6225834;23;20008;-87
2023/01/02 08:39:33;;;;;;;11.77;4.07;;;;;;;;;;6251996;23;20026;-88
2023/01/02 08:42:00;;;;;;;11.05;4.80;;;;;;;;;;6224766;23;20022;-88
2023/01/02 08:44:29;;;;;;;12.10;3.88;;;;;;;;;;6251165;23;20043;-88
2023/01/02 08:46:56;;;;;;;11.57;4.30;;;;;;;;;;6199330;23;20042;-88
2023/01/02 08:49:25;;;;;;;14.52;4.13;;;;;;;;;;6252366;23;20027;-89
2023/01/02 08:51:53;;;;;;;12.10;4.50;;;;;;;;;;6226247;23;20020;-87
2023/01/02 08:54:20;;;;;;;12.77;4.13;;;;;;;;;;6191093;23;20372;-88
2023/01/02 08:56:49;;;;;;;7.93;4.00;;;;;;;;;;6252800;23;20050;-88
2023/01/02 08:59:22;;;;;;;10.27;3.67;;;;;;;;;;6225537;23;20046;-88
2023/01/02 09:02:01;;;;;;;10.07;4.20;;;;;;;;;;6224325;23;20012;-88
2023/01/02 09:04:32;;;;;;;7.93;3.70;;;;;;;;;;6227621;23;20095;-88
2023/01/02 09:07:00;;;;;;;10.07;4.10;;;;;;;;;;6227109;23;20095;-88
2023/01/02 09:09:32;;;;;;;9.02;3.95;;;;;;;;;;6193813;23;20024;-88
2023/01/02 09:12:00;;;;;;;7.65;3.90;;;;;;;;;;6215572;23;20098;-88
2023/01/02 09:14:28;;;;;;;9.27;3.97;;;;;;;;;;6259190;23;20027;-87
2023/01/02 09:17:21;;;;;;;9.63;4.40;;;;;;;;;;6213712;23;20011;-88
2023/01/02 09:19:52;;;;;;;10.38;4.63;;;;;;;;;;6223171;23;20024;-88
2023/01/02 09:22:21;;;;;;;8.02;4.15;;;;;;;;;;6221570;23;20095;-88
2023/01/02 09:24:49;;;;;;;10.18;4.72;;;;;;;;;;6232220;23;20030;-88
2023/01/02 09:27:21;;;;;;;8.02;3.55;;;;;;;;;;6257215;23;20012;-88
2023/01/02 09:29:49;;;;;;;13.93;3.85;;;;;;;;;;6255684;23;20024;-88
2023/01/02 09:32:17;;;;;;;6.38;3.92;;;;;;;;;;6218704;23;20028;-88
2023/01/02 09:34:49;;;;;;;9.77;4.38;;;;;;;;;;6257086;23;20039;-88
2023/01/02 09:37:43;;;;;;;6.88;4.00;;;;;;;;;;6236784;23;20016;-88
2023/01/02 09:40:19;;;;;;;11.63;4.65;;;;;;;;;;6254293;23;20024;-88
2023/01/02 09:42:49;;;;;;;5.57;3.58;;;;;;;;;;6227041;23;20050;-88
2023/01/02 09:45:19;;;;;;;5.82;3.75;;;;;;;;;;6193274;23;20054;-88
2023/01/02 09:47:47;;;;;;;13.13;4.57;;;;;;;;;;6195446;23;20083;-88
2023/01/02 09:50:26;;;;;;;7.93;3.90;;;;;;;;;;6217279;23;20111;-88
2023/01/02 09:52:58;;;;;;;9.50;3.70;;;;;;;;;;6224740;23;20016;-89
2023/01/02 09:55:47;;;;;;;7.70;3.92;;;;;;;;;;6187524;23;20028;-88
2023/01/02 09:58:20;;;;;;;10.32;3.83;;;;;;;;;;6186268;23;20099;-89
2023/01/02 10:01:22;;;;;;;6.97;3.40;;;;;;;;;;6223385;23;20008;-88
2023/01/02 10:04:15;;;;;;;9.80;3.90;;;;;;;;;;6195847;23;20044;-89
2023/01/02 10:07:01;;;;;;;8.38;3.53;;;;;;;;;;6218751;23;20031;-88
2023/01/02 10:09:51;;;;;;;8.85;3.88;;;;;;;;;;6222635;23;20043;-88
2023/01/02 10:12:31;;;;;;;11.45;4.00;;;;;;;;;;6221032;23;20052;-88
2023/01/02 10:15:02;;;;;;;8.55;3.60;;;;;;;;;;6222646;23;20480;-87
2023/01/02 10:17:36;;;;;;;5.63;3.20;;;;;;;;;;6221182;23;20044;-88
2023/01/02 10:20:18;;;;;;;5.95;3.58;;;;;;;;;;6221196;23;20040;-88
2023/01/02 10:22:56;;;;;;;9.82;3.63;;;;;;;;;;6221865;23;20021;-88
2023/01/02 10:25:43;;;;;;;7.47;3.58;;;;;;;;;;6219628;23;20038;-89
2023/01/02 10:28:37;;;;;;;6.68;3.97;;;;;;;;;;6210564;23;20020;-88
2023/01/02 10:31:10;;;;;;;5.30;3.03;;;;;;;;;;6219952;23;20017;-89
2023/01/02 10:34:10;;;;;;;6.22;3.40;;;;;;;;;;6210466;23;20102;-88
2023/01/02 10:36:41;;;;;;;8.73;3.78;;;;;;;;;;6159781;23;20020;-88
2023/01/02 10:39:30;;;;;;;5.95;3.47;;;;;;;;;;6196918;23;20516;-89
2023/01/02 10:42:25;;;;;;;7.82;3.45;;;;;;;;;;6210507;23;20356;-89
2023/01/02 10:44:53;;;;;;;7.68;3.63;;;;;;;;;;6220524;23;20043;-89
2023/01/02 10:47:32;;;;;;;5.68;2.97;;;;;;;;;;6207670;23;20021;-89
2023/01/02 10:50:04;;;;;;;10.25;3.17;;;;;;;;;;6209722;23;20016;-89
2023/01/02 10:52:40;;;;;;;8.25;3.08;;;;;;;;;;6220085;23;20417;-89
2023/01/02 10:55:36;;;;;;;9.45;3.70;;;;;;;;;;6221737;23;20420;-89
2023/01/02 10:58:26;;;;;;;7.63;3.47;;;;;;;;;;6219438;23;20017;-89
2023/01/02 11:01:17;;;;;;;10.40;3.97;;;;;;;;;;6220342;23;20023;-89
2023/01/02 11:04:11;;;;;;;5.65;2.65;;;;;;;;;;6219715;23;20453;-89
2023/01/02 11:06:52;;;;;;;5.65;3.13;;;;;;;;;;6220064;23;20040;-89
2023/01/02 11:09:25;;;;;;;9.00;3.13;;;;;;;;;;6211388;23;20027;-88
2023/01/02 11:12:17;;;;;;;7.95;3.50;;;;;;;;;;6220307;23;20344;-89
2023/01/02 11:15:13;;;;;;;8.75;3.20;;;;;;;;;;6219800;23;20469;-89
2023/01/02 11:17:43;;;;;;;6.28;2.78;;;;;;;;;;6220168;23;20491;-89
2023/01/02 11:20:23;;;;;;;8.02;2.97;;;;;;;;;;6222483;23;20063;-89
2023/01/02 11:22:53;;;;;;;7.20;3.13;;;;;;;;;;6221694;23;20016;-88
2023/01/02 11:25:34;;;;;;;6.60;2.90;;;;;;;;;;6222644;23;20066;-88
2023/01/02 11:28:03;;;;;;;6.32;3.00;;;;;;;;;;6209903;23;20062;-88
2023/01/02 11:30:49;;;;;;;6.38;3.17;;;;;;;;;;6219345;23;20021;-89
2023/01/02 11:33:22;;;;;;;11.38;3.05;;;;;;;;;;6185773;23;20040;-89
2023/01/02 11:35:53;;;;;;;4.53;2.58;;;;;;;;;;6221102;23;20047;-89
2023/01/02 11:38:26;;;;;;;7.57;2.42;;;;;;;;;;6186988;23;20020;-89
2023/01/02 11:41:01;;;;;;;6.55;1.90;;;;;;;;;;6221065;23;20020;-89
2023/01/02 11:43:59;;;;;;;2.80;1.70;;;;;;;;;;6219769;23;20032;-89
2023/01/02 11:46:31;;;;;;;2.90;1.60;;;;;;;;;;6158824;23;20028;-89
2023/01/02 11:49:31;;;;;;;4.03;1.42;;;;;;;;;;6228274;23;20016;-89
2023/01/02 11:52:02;;;;;;;2.78;0.80;;;;;;;;;;6204725;23;20013;-89
2023/01/02 11:54:48;;;;;;;2.67;0.68;;;;;;;;;;6229110;23;20379;-89
2023/01/02 11:58:11;;;;;;;2.20;0.60;;;;;;;;;;6230628;23;20020;-90
2023/01/02 12:01:15;;;;;;;1.95;0.82;;;;;;;;;;6219665;23;20377;-90
2023/01/02 12:03:43;;;;;;;2.70;0.73;;;;;;;;;;6193595;23;20039;-89
2023/01/02 12:06:19;;;;;;;1.10;0.50;;;;;;;;;;6192761;23;20020;-89
2023/01/02 12:09:13;;;;;;;1.45;0.70;;;;;;;;;;6228065;23;20025;-90
2023/01/02 12:11:46;;;;;;;2.20;0.80;;;;;;;;;;6225930;23;20042;-89
2023/01/02 12:14:15;;;;;;;1.73;0.80;;;;;;;;;;6168241;23;20017;-90
2023/01/02 12:17:20;;;;;;;1.60;0.80;;;;;;;;;;6225424;23;20021;-90
2023/01/02 12:19:58;;;;;;;1.45;0.73;;;;;;;;;;6226325;23;20520;-89
2023/01/02 12:23:07;;;;;;;1.60;0.77;;;;;;;;;;6200906;23;20028;-90
2023/01/02 12:25:48;;;;;;;2.40;1.20;;;;;;;;;;6193198;23;20428;-89
2023/01/02 12:28:50;;;;;;;2.95;0.93;;;;;;;;;;6228453;23;20242;-89
2023/01/02 12:31:28;;;;;;;2.75;1.27;;;;;;;;;;6227294;23;20016;-90
2023/01/02 12:34:36;;;;;;;2.42;0.95;;;;;;;;;;6227169;23;20016;-90
2023/01/02 12:37:11;;;;;;;2.45;1.00;;;;;;;;;;6191215;23;20074;-90
2023/01/02 12:39:42;;;;;;;2.58;1.35;;;;;;;;;;6231209;23;20020;-90
2023/01/02 12:42:11;;;;;;;2.05;0.80;;;;;;;;;;6228108;23;20507;-90
2023/01/02 12:44:53;;;;;;;3.45;1.25;;;;;;;;;;6228321;23;20017;-90
2023/01/02 12:47:37;;;;;;;2.15;1.02;;;;;;;;;;6231229;23;20016;-90
2023/01/02 12:50:24;;;;;;;3.03;1.30;;;;;;;;;;6227824;23;20020;-89
2023/01/02 12:53:35;;;;;;;2.95;1.25;;;;;;;;;;6223359;23;20116;-90
2023/01/02 12:56:24;;;;;;;2.53;1.38;;;;;;;;;;6115369;23;20627;-89
2023/01/02 12:59:18;;;;;;;2.80;1.00;;;;;;;;;;6164820;23;20025;-91
2023/01/02 13:02:27;;;;;;;1.58;0.73;;;;;;;;;;6101111;23;20021;-90
2023/01/02 13:05:06;;;;;;;1.63;0.77;;;;;;;;;;6126961;23;20025;-90
2023/01/02 13:07:39;;;;;;;2.67;1.10;;;;;;;;;;6132403;23;20041;-89
2023/01/02 13:10:19;;;;;;;1.08;0.55;;;;;;;;;;6123768;23;20044;-90
2023/01/02 13:12:49;;;;;;;2.05;0.70;;;;;;;;;;6156813;23;20048;-90
2023/01/02 13:15:22;;;;;;;3.13;0.80;;;;;;;;;;6122832;23;20703;-91
2023/01/02 13:18:13;;;;;;;1.95;0.70;;;;;;;;;;6130849;23;20017;-91
2023/01/02 13:20:54;;;;;;;1.08;0.60;;;;;;;;;;6157892;23;20545;-91
2023/01/02 13:23:34;;;;;;;1.77;0.60;;;;;;;;;;6159024;23;20021;-91
2023/01/02 13:26:12;;;;;;;2.42;0.80;;;;;;;;;;6136458;23;20056;-90
2023/01/02 13:28:50;;;;;;;1.17;0.63;;;;;;;;;;6134589;23;20044;-91
2023/01/02 13:31:19;;;;;;;4.05;1.00;;;;;;;;;;6164622;23;20031;-91
2023/01/02 13:34:36;;;;;;;4.15;1.00;;;;;;;;;;6209924;23;20512;-91
2023/01/02 13:37:14;;;;;;;2.10;0.80;;;;;;;;;;6220253;23;20027;-91
2023/01/02 13:40:22;;;;;;;1.95;0.70;;;;;;;;;;6189615;23;20154;-91
2023/01/02 13:43:02;;;;;;;2.92;0.70;;;;;;;;;;6220694;23;20091;-90
2023/01/02 13:45:55;;;;;;;2.85;1.10;;;;;;;;;;6161231;23;20100;-90
2023/01/02 13:48:53;;;;;;;1.70;0.70;;;;;;;;;;6209775;23;20040;-91
2023/01/02 13:51:24;;;;;;;2.20;0.80;;;;;;;;;;6219969;23;20028;-91
2023/01/02 13:54:19;;;;;;;2.08;0.68;;;;;;;;;;6200587;23;20015;-91
2023/01/02 13:57:26;;;;;;;2.55;1.25;;;;;;;;;;6184188;23;20047;-91
2023/01/02 14:00:00;;;;;;;3.42;0.88;;;;;;;;;;6220981;23;20020;-91
2023/01/02 14:02:38;;;;;;;3.22;0.90;;;;;;;;;;6217999;23;20013;-90
2023/01/02 14:05:46;;;;;;;2.00;0.77;;;;;;;;;;6183833;23;20078;-91
2023/01/02 14:08:38;;;;;;;1.63;0.90;;;;;;;;;;6184081;23;20560;-91
2023/01/02 14:11:47;;;;;;;1.70;0.80;;;;;;;;;;6189409;23;20457;-90
2023/01/02 14:14:51;;;;;;;3.38;0.70;;;;;;;;;;6209816;23;20075;-90
2023/01/02 14:17:31;;;;;;;3.10;0.80;;;;;;;;;;6194337;23;20017;-91
2023/01/02 14:20:26;;;;;;;1.20;0.50;;;;;;;;;;6185998;23;20020;-90
2023/01/02 14:23:02;;;;;;;2.53;0.75;;;;;;;;;;6185449;23;20024;-91
2023/01/02 14:25:32;;;;;;;1.02;0.47;;;;;;;;;;6160332;23;20412;-90
2023/01/02 14:28:04;;;;;;;3.13;0.70;;;;;;;;;;6159788;23;20044;-91
2023/01/02 14:30:38;;;;;;;3.45;0.75;;;;;;;;;;6182902;23;20103;-90
2023/01/02 14:33:17;;;;;;;1.52;0.60;;;;;;;;;;6218972;23;20074;-90
2023/01/02 14:35:56;;;;;;;1.48;0.52;;;;;;;;;;6220296;23;20096;-91
2023/01/02 14:38:29;;;;;;;1.20;0.57;;;;;;;;;;6218038;23;20092;-91
2023/01/02 14:43:43;;;;;;;3.00;1.48;;;;;;;;;;6210252;23;20405;-90
2023/01/02 14:46:15;;;;;;;2.95;0.93;;;;;;;;;;6218536;23;20021;-90
2023/01/02 14:49:13;;;;;;;4.63;1.00;;;;;;;;;;6183023;23;20071;-91
2023/01/02 14:52:00;;;;;;;2.33;1.10;;;;;;;;;;6221391;23;20096;-91
2023/01/02 14:54:38;;;;;;;1.70;0.88;;;;;;;;;;6219757;23;20016;-91
2023/01/02 14:57:31;;;;;;;3.53;1.25;;;;;;;;;;6219438;23;20020;-91
2023/01/02 15:00:01;;;;;;;1.98;0.70;;;;;;;;;;6199356;23;20028;-90
2023/01/02 15:02:40;;;;;;;1.95;0.70;;;;;;;;;;6183201;23;20361;-91
2023/01/02 15:05:18;;;;;;;2.63;1.00;;;;;;;;;;6195952;23;20051;-90
2023/01/02 15:07:52;;;;;;;1.67;0.82;;;;;;;;;;6209120;23;20024;-91
2023/01/02 15:13:50;;;;;;;1.50;0.80;;;;;;;;;;6221117;23;20027;-90
2023/01/02 15:16:40;;;;;;;1.98;0.77;;;;;;;;;;6218797;23;20044;-90
2023/01/02 15:19:20;;;;;;;2.88;1.33;;;;;;;;;;6219394;23;20016;-91
2023/01/02 15:21:47;;;;;;;5.15;1.10;;;;;;;;;;6183971;23;20031;-91
2023/01/02 15:24:32;;;;;;;3.45;1.50;;;;;;;;;;6217835;23;20463;-91
2023/01/02 15:27:21;;;;;;;2.97;1.30;;;;;;;;;;6208883;23;20345;-91
2023/01/02 15:30:01;;;;;;;2.53;1.40;;;;;;;;;;6195052;23;20016;-91
2023/01/02 15:32:32;;;;;;;2.70;1.33;;;;;;;;;;6219781;23;20017;-91
2023/01/02 15:35:24;;;;;;;5.35;1.35;;;;;;;;;;6219841;23;20520;-90
2023/01/02 15:37:51;;;;;;;6.30;2.33;;;;;;;;;;6178566;23;20020;-92
2023/01/02 15:40:20;;;;;;;5.57;2.10;;;;;;;;;;6208596;23;20031;-91
2023/01/02 15:45:59;;;;;;;5.00;2.38;;;;;;;;;;6209239;23;20025;-90
2023/01/02 15:48:28;;;;;;;3.00;1.85;;;;;;;;;;6219021;23;20066;-90
2023/01/02 15:50:57;;;;;;;5.85;1.73;;;;;;;;;;6225241;23;20022;-90
2023/01/02 15:53:29;;;;;;;4.25;2.13;;;;;;;;;;6188415;23;20024;-90
2023/01/02 15:56:01;;;;;;;3.45;1.80;;;;;;;;;;6214259;23;20105;-91
2023/01/02 15:58:31;;;;;;;5.57;1.80;;;;;;;;;;6189779;23;20058;-92
2023/01/02 16:01:08;;;;;;;5.88;2.05;;;;;;;;;;6225256;23;20091;-92
2023/01/02 16:03:38;;;;;;;4.05;1.77;;;;;;;;;;6164717;23;20024;-92